Time;durP1;ratioP1;P1;durP2;ratioP2;P2;SDS_P1;SDS_P2;PMS_P1;PMS_P2;Temp;Humidity;BMP_temperature;BMP_pressure;BME280_temperature;BME280_humidity;BME280_pressure;Samples;Min_cycle;Max_cycle;Signal;HPM_P1;HPM_P2
2021/07/20 00:01:11;;;;;;;11.82;8.23;;;;;;;18.25;54.15;100320.00;6067794;23;20045;-85
2021/07/20 00:03:38;;;;;;;12.18;8.35;;;;;;;18.23;53.77;100315.66;6066118;23;20026;-85
2021/07/20 00:06:05;;;;;;;11.55;8.05;;;;;;;18.22;54.15;100310.44;6067629;23;20451;-86
2021/07/20 00:08:31;;;;;;;10.32;7.63;;;;;;;18.19;54.01;100314.22;6066087;23;20030;-86
2021/07/20 00:11:01;;;;;;;14.32;8.20;;;;;;;18.17;54.37;100312.63;6066152;23;20046;-86
2021/07/20 00:13:28;;;;;;;13.75;7.78;;;;;;;18.15;53.92;100310.09;6066312;23;20336;-86
2021/07/20 00:15:55;;;;;;;10.75;7.28;;;;;;;18.13;53.84;100308.53;6066964;23;20062;-86
2021/07/20 00:18:27;;;;;;;12.32;7.60;;;;;;;18.10;54.90;100314.94;6067605;23;20038;-87
2021/07/20 00:20:54;;;;;;;12.82;8.82;;;;;;;18.10;54.30;100306.97;6066079;23;20029;-87
2021/07/20 00:23:22;;;;;;;11.05;7.60;;;;;;;18.07;54.55;100313.34;6067624;23;20078;-85
2021/07/20 00:25:50;;;;;;;13.18;7.70;;;;;;;18.07;54.80;100313.34;6067071;23;20022;-87
2021/07/20 00:28:17;;;;;;;12.23;7.63;;;;;;;18.05;54.64;100311.78;6065337;23;20023;-87
2021/07/20 00:30:44;;;;;;;12.35;7.65;;;;;;;18.05;54.25;100315.28;6067436;23;20034;-84
2021/07/20 00:33:11;;;;;;;11.73;7.40;;;;;;;18.04;54.39;100318.06;6067074;23;20359;-85
2021/07/20 00:35:39;;;;;;;10.27;7.50;;;;;;;18.02;54.51;100312.03;6065615;23;20029;-84
2021/07/20 00:38:05;;;;;;;11.10;6.88;;;;;;;18.00;54.24;100305.94;6065249;23;20038;-87
2021/07/20 00:40:33;;;;;;;12.15;7.63;;;;;;;17.98;54.48;100314.06;6067182;23;20023;-85
2021/07/20 00:43:00;;;;;;;11.30;7.38;;;;;;;17.94;54.34;100309.97;6065523;23;20019;-86
2021/07/20 00:45:29;;;;;;;11.45;7.57;;;;;;;17.90;54.21;100309.34;6066609;23;20026;-85
2021/07/20 00:47:56;;;;;;;12.88;7.97;;;;;;;17.86;54.39;100313.22;6065867;23;20039;-86
2021/07/20 00:50:26;;;;;;;14.02;7.68;;;;;;;17.81;54.71;100312.75;6066660;23;20358;-86
2021/07/20 00:52:52;;;;;;;10.57;6.90;;;;;;;17.79;54.60;100312.88;6066771;23;20026;-87
2021/07/20 00:55:20;;;;;;;9.88;6.57;;;;;;;17.74;54.65;100312.38;6067506;23;20045;-86
2021/07/20 00:57:47;;;;;;;10.13;6.75;;;;;;;17.70;54.76;100302.94;6065778;23;20304;-87
2021/07/20 01:00:18;;;;;;;10.55;6.43;;;;;;;17.66;55.13;100301.50;6067358;23;20340;-86
2021/07/20 01:02:45;;;;;;;9.75;6.15;;;;;;;17.63;54.71;100301.72;6067289;23;20029;-86
2021/07/20 01:05:15;;;;;;;10.50;6.55;;;;;;;17.60;54.93;100304.66;6067193;23;20031;-87
2021/07/20 01:07:44;;;;;;;10.10;7.10;;;;;;;17.56;55.23;100299.53;6066792;23;20031;-86
2021/07/20 01:10:12;;;;;;;11.93;6.93;;;;;;;17.53;55.30;100299.78;6068535;23;20030;-86
2021/07/20 01:12:41;;;;;;;12.00;6.93;;;;;;;17.51;55.17;100299.06;6067480;23;20033;-86
2021/07/20 01:15:09;;;;;;;11.77;6.88;;;;;;;17.49;55.14;100293.00;6068694;23;20793;-86
2021/07/20 01:17:37;;;;;;;12.88;7.65;;;;;;;17.47;55.55;100291.44;6067672;23;20023;-85
2021/07/20 01:20:16;;;;;;;9.80;7.07;;;;;;;17.41;56.03;100290.09;6069153;23;20023;-86
2021/07/20 01:23:07;;;;;;;9.75;6.75;;;;;;;17.37;55.64;100291.28;6069350;23;20027;-86
2021/07/20 01:25:35;;;;;;;11.38;7.40;;;;;;;17.40;55.20;100293.72;6067385;23;20031;-87
2021/07/20 01:28:06;;;;;;;11.48;7.00;;;;;;;17.36;55.17;100290.47;6067348;23;20027;-86
2021/07/20 01:30:37;;;;;;;8.25;6.45;;;;;;;17.35;55.38;100290.56;6069687;23;20030;-86
2021/07/20 01:33:06;;;;;;;10.60;6.93;;;;;;;17.33;55.33;100296.00;6067749;23;20030;-85
2021/07/20 01:35:34;;;;;;;8.85;6.53;;;;;;;17.32;55.45;100292.47;6066944;23;20034;-84
2021/07/20 01:38:04;;;;;;;10.88;5.95;;;;;;;17.28;55.70;100285.72;6066673;23;20078;-85
2021/07/20 01:40:32;;;;;;;9.43;6.50;;;;;;;17.28;55.51;100291.06;6067229;23;20030;-85
2021/07/20 01:43:00;;;;;;;8.63;6.05;;;;;;;17.27;55.58;100293.84;6067242;23;20023;-86
2021/07/20 01:45:28;;;;;;;10.20;6.00;;;;;;;17.24;55.77;100286.94;6068269;23;20359;-85
2021/07/20 01:47:57;;;;;;;7.78;5.97;;;;;;;17.23;55.88;100295.03;6068141;23;20038;-85
2021/07/20 01:50:25;;;;;;;8.30;5.90;;;;;;;17.19;55.80;100287.28;6067263;23;20543;-85
2021/07/20 01:52:54;;;;;;;11.25;6.43;;;;;;;17.17;56.02;100288.34;6066910;23;20033;-86
2021/07/20 01:55:25;;;;;;;10.25;6.43;;;;;;;17.14;56.09;100288.59;6067142;23;20031;-86
2021/07/20 01:57:53;;;;;;;8.77;6.03;;;;;;;17.12;55.61;100294.03;6067042;23;20023;-87
2021/07/20 02:00:21;;;;;;;9.10;6.25;;;;;;;17.09;56.11;100291.63;6069447;23;20022;-86
2021/07/20 02:08:24;;;;;;;10.02;5.72;;;;;;;17.03;55.98;100295.56;6068998;23;20026;-85
2021/07/20 02:10:53;;;;;;;9.05;4.95;;;;;;;16.97;56.13;100296.00;6069302;23;20023;-86
2021/07/20 02:13:21;;;;;;;8.13;5.72;;;;;;;16.95;56.14;100295.28;6069316;23;20023;-86
2021/07/20 02:15:49;;;;;;;6.95;4.63;;;;;;;16.93;56.10;100303.38;6069184;23;20412;-86
2021/07/20 02:18:16;;;;;;;8.40;5.25;;;;;;;16.92;56.25;100300.81;6069257;23;20026;-85
2021/07/20 02:20:44;;;;;;;7.15;5.15;;;;;;;16.91;56.43;100305.31;6067117;23;20030;-85
2021/07/20 02:23:11;;;;;;;7.45;5.47;;;;;;;16.90;56.49;100305.41;6065425;23;20023;-84
2021/07/20 02:25:40;;;;;;;8.07;5.60;;;;;;;16.90;56.36;100308.06;6068075;23;20038;-85
2021/07/20 02:28:20;;;;;;;8.23;5.55;;;;;;;16.91;56.59;100304.44;6069400;23;20034;-85
2021/07/20 02:30:50;;;;;;;8.02;5.63;;;;;;;16.90;57.01;100300.94;6067626;23;20026;-85
2021/07/20 02:33:17;;;;;;;7.68;5.32;;;;;;;16.92;56.74;100304.34;6067912;23;20078;-86
2021/07/20 02:35:45;;;;;;;8.60;5.47;;;;;;;16.95;56.94;100295.28;6066511;23;20034;-87
2021/07/20 02:38:12;;;;;;;7.55;5.28;;;;;;;16.99;56.81;100296.75;6066759;23;20037;-85
2021/07/20 02:40:39;;;;;;;12.23;5.97;;;;;;;17.02;57.29;100293.88;6067185;23;20030;-85
2021/07/20 02:43:06;;;;;;;7.57;5.65;;;;;;;17.06;57.77;100300.69;6068220;23;20042;-86
2021/07/20 02:45:35;;;;;;;11.25;5.97;;;;;;;17.13;58.21;100300.19;6068163;23;20360;-86
2021/07/20 02:48:03;;;;;;;7.75;5.13;;;;;;;17.19;58.11;100297.06;6067918;23;20027;-86
2021/07/20 02:50:31;;;;;;;7.50;5.68;;;;;;;17.24;58.02;100297.56;6066332;23;20026;-86
2021/07/20 02:52:59;;;;;;;10.00;5.32;;;;;;;17.30;57.83;100298.91;6067946;23;20034;-86
2021/07/20 02:55:27;;;;;;;7.88;5.70;;;;;;;17.36;57.70;100297.59;6066424;23;20351;-87
2021/07/20 02:57:55;;;;;;;9.63;5.53;;;;;;;17.41;57.90;100304.25;6067858;23;20034;-86
2021/07/20 03:00:23;;;;;;;8.07;5.32;;;;;;;17.47;57.82;100308.25;6067229;23;20050;-86
2021/07/20 03:02:49;;;;;;;8.20;5.45;;;;;;;17.52;57.77;100307.88;6068879;23;20031;-86
2021/07/20 03:05:17;;;;;;;9.93;5.88;;;;;;;17.57;58.04;100306.56;6068188;23;20026;-86
2021/07/20 03:07:53;;;;;;;10.85;5.90;;;;;;;17.58;58.00;100310.91;6068340;23;20038;-86
2021/07/20 03:10:22;;;;;;;10.73;5.90;;;;;;;17.66;57.82;100317.47;6066993;23;20034;-86
2021/07/20 03:12:50;;;;;;;7.85;5.28;;;;;;;17.68;57.43;100316.38;6066408;23;20534;-86
2021/07/20 03:15:18;;;;;;;8.15;5.47;;;;;;;17.73;57.52;100316.03;6066545;23;20023;-85
2021/07/20 03:17:46;;;;;;;10.00;6.60;;;;;;;17.75;57.73;100315.91;6066539;23;20422;-84
2021/07/20 03:20:15;;;;;;;10.98;6.30;;;;;;;17.79;57.75;100320.03;6066212;23;20023;-85
2021/07/20 03:22:43;;;;;;;8.40;5.00;;;;;;;17.80;57.29;100319.88;6067732;23;20460;-86
2021/07/20 03:25:11;;;;;;;8.95;5.25;;;;;;;17.84;57.28;100317.84;6068242;23;20384;-86
2021/07/20 03:27:40;;;;;;;8.73;5.45;;;;;;;17.84;57.06;100324.00;6066328;23;20486;-86
2021/07/20 03:30:09;;;;;;;10.07;5.80;;;;;;;17.84;56.86;100323.16;6068379;23;20027;-86
2021/07/20 03:32:43;;;;;;;9.40;5.13;;;;;;;17.86;56.42;100320.38;6067204;23;20026;-85
2021/07/20 03:35:12;;;;;;;8.18;5.55;;;;;;;17.86;56.31;100320.38;6066054;23;20026;-85
2021/07/20 03:37:39;;;;;;;11.40;6.28;;;;;;;17.86;56.39;100323.03;6067425;23;20022;-85
2021/07/20 03:40:08;;;;;;;13.27;7.82;;;;;;;17.84;56.82;100329.31;6066220;23;20023;-86
2021/07/20 03:42:35;;;;;;;10.95;6.88;;;;;;;17.84;57.07;100326.66;6065831;23;20034;-85
2021/07/20 03:45:03;;;;;;;12.57;6.65;;;;;;;17.84;56.84;100324.00;6067383;23;20042;-84
2021/07/20 03:47:31;;;;;;;13.02;7.13;;;;;;;17.86;57.09;100326.53;6067552;23;20027;-85
2021/07/20 03:49:58;;;;;;;9.90;5.85;;;;;;;17.88;56.95;100321.97;6066075;23;20031;-85
2021/07/20 03:52:27;;;;;;;9.85;7.13;;;;;;;17.89;57.03;100325.44;6067520;23;20030;-85
2021/07/20 03:54:54;;;;;;;11.88;6.57;;;;;;;17.90;56.87;100327.16;6066908;23;20019;-85
2021/07/20 03:57:22;;;;;;;10.38;6.95;;;;;;;17.90;56.67;100330.66;6067000;23;20057;-85
2021/07/20 03:59:52;;;;;;;15.80;6.97;;;;;;;17.90;57.08;100327.16;6068385;23;20031;-84
2021/07/20 04:02:22;;;;;;;11.77;7.78;;;;;;;17.90;57.01;100324.50;6067421;23;20458;-84
2021/07/20 04:04:52;;;;;;;11.15;6.97;;;;;;;17.90;56.99;100327.16;6066858;23;20058;-86
2021/07/20 04:07:19;;;;;;;11.77;7.32;;;;;;;17.90;57.09;100327.16;6065579;23;20038;-86
2021/07/20 04:09:49;;;;;;;13.95;8.55;;;;;;;17.90;56.97;100322.66;6067489;23;20030;-85
2021/07/20 04:12:16;;;;;;;12.15;7.50;;;;;;;17.90;57.08;100328.00;6065899;23;20033;-87
2021/07/20 04:14:44;;;;;;;17.85;8.40;;;;;;;17.91;56.89;100328.84;6065501;23;20067;-87
2021/07/20 04:17:13;;;;;;;13.63;8.25;;;;;;;17.90;57.04;100325.31;6065745;23;20027;-87
2021/07/20 04:19:42;;;;;;;14.40;8.35;;;;;;;17.94;57.57;100333.94;6065908;23;20133;-85
2021/07/20 04:22:10;;;;;;;13.57;8.20;;;;;;;17.94;57.76;100331.28;6065474;23;20479;-84
2021/07/20 04:24:38;;;;;;;12.93;8.13;;;;;;;17.96;57.51;100332.00;6067177;23;20019;-86
2021/07/20 04:27:05;;;;;;;12.88;7.43;;;;;;;18.00;57.28;100321.94;6065580;23;20030;-85
2021/07/20 04:29:32;;;;;;;11.52;7.32;;;;;;;18.01;56.68;100324.47;6067010;23;20034;-85
2021/07/20 04:32:03;;;;;;;10.88;6.97;;;;;;;18.02;56.88;100320.84;6067504;23;20037;-85
2021/07/20 04:34:33;;;;;;;14.43;7.90;;;;;;;18.04;56.70;100326.91;6067149;23;20031;-85
2021/07/20 04:37:01;;;;;;;10.90;7.15;;;;;;;18.05;57.13;100317.94;6067193;23;20035;-85
2021/07/20 04:39:28;;;;;;;14.98;8.63;;;;;;;18.08;56.57;100319.53;6066824;23;20023;-86
2021/07/20 04:41:55;;;;;;;15.20;9.25;;;;;;;18.10;56.65;100322.94;6064817;23;20490;-87
2021/07/20 04:44:22;;;;;;;13.35;8.95;;;;;;;18.10;56.66;100313.13;6066429;23;20030;-85
2021/07/20 04:46:49;;;;;;;14.73;8.68;;;;;;;18.12;56.53;100315.66;6066517;23;20038;-86
2021/07/20 04:49:16;;;;;;;18.88;8.40;;;;;;;18.15;56.89;100322.56;6066325;23;20035;-86
2021/07/20 04:51:45;;;;;;;12.93;8.55;;;;;;;18.17;56.95;100324.13;6067998;23;20496;-86
2021/07/20 04:54:15;;;;;;;14.88;8.63;;;;;;;18.20;57.52;100325.69;6066495;23;20026;-85
2021/07/20 04:56:42;;;;;;;13.48;7.78;;;;;;;18.23;57.03;100322.78;6067573;23;20034;-85
2021/07/20 04:59:13;;;;;;;14.07;8.25;;;;;;;18.26;57.01;100327.88;6067875;23;20060;-86
2021/07/20 05:01:42;;;;;;;16.83;8.95;;;;;;;18.29;57.03;100327.66;6065176;23;20035;-87
2021/07/20 05:04:09;;;;;;;12.90;8.52;;;;;;;18.33;57.13;100322.91;6064989;23;20033;-85
2021/07/20 05:06:37;;;;;;;12.98;8.63;;;;;;;18.36;57.40;100326.16;6068377;23;20471;-84
2021/07/20 05:09:05;;;;;;;13.18;8.73;;;;;;;18.40;56.93;100328.59;6066690;23;20540;-84
2021/07/20 05:11:34;;;;;;;12.25;8.00;;;;;;;18.43;56.79;100323.84;6068406;23;20038;-85
2021/07/20 05:14:05;;;;;;;12.77;8.68;;;;;;;18.48;56.65;100328.81;6066433;23;20478;-86
2021/07/20 05:16:33;;;;;;;13.32;8.23;;;;;;;18.52;56.84;100327.59;6066911;23;20038;-87
2021/07/20 05:19:02;;;;;;;13.77;7.85;;;;;;;18.56;56.74;100329.03;6065162;23;20029;-87
2021/07/20 05:21:29;;;;;;;11.95;7.95;;;;;;;18.61;56.65;100325.97;6067686;23;20034;-85
2021/07/20 05:23:57;;;;;;;12.88;7.75;;;;;;;18.65;56.30;100329.25;6065739;23;20034;-87
2021/07/20 05:26:28;;;;;;;11.52;7.53;;;;;;;18.70;56.57;100325.25;6065289;23;20042;-88
2021/07/20 05:28:55;;;;;;;13.95;7.65;;;;;;;18.73;56.92;100322.28;6065801;23;20026;-88
2021/07/20 05:31:25;;;;;;;12.65;6.97;;;;;;;18.77;56.46;100328.25;6067414;23;20026;-87
2021/07/20 05:33:53;;;;;;;10.80;7.32;;;;;;;18.84;56.13;100326.75;6065205;23;20400;-87
2021/07/20 05:36:20;;;;;;;10.75;7.32;;;;;;;18.89;56.58;100329.03;6067219;23;20030;-89
2021/07/20 05:38:46;;;;;;;10.73;7.38;;;;;;;18.92;56.29;100328.78;6067668;23;20026;-88
2021/07/20 05:41:13;;;;;;;10.05;6.70;;;;;;;18.97;55.64;100331.91;6067524;23;20026;-88
2021/07/20 05:43:41;;;;;;;10.32;6.80;;;;;;;19.01;55.94;100333.34;6065533;23;20463;-89
2021/07/20 05:46:08;;;;;;;10.50;6.95;;;;;;;19.06;56.25;100335.66;6067054;23;20027;-88
2021/07/20 05:48:35;;;;;;;10.13;7.05;;;;;;;19.11;56.02;100345.94;6066131;23;20082;-88
2021/07/20 05:51:04;;;;;;;9.95;7.07;;;;;;;19.16;56.05;100340.22;6067880;23;20030;-86
2021/07/20 05:53:31;;;;;;;9.38;6.57;;;;;;;19.20;55.44;100339.84;6068101;23;20030;-88
2021/07/20 05:56:02;;;;;;;10.65;7.13;;;;;;;19.24;55.03;100340.41;6068321;23;20038;-88
2021/07/20 05:58:29;;;;;;;10.52;7.10;;;;;;;19.30;54.67;100341.72;6069269;23;20027;-88
2021/07/20 06:01:01;;;;;;;10.65;7.13;;;;;;;19.31;54.58;100346.06;6067816;23;20030;-87
2021/07/20 06:03:29;;;;;;;12.37;7.33;;;;;;;19.36;54.91;100344.72;6067443;23;20513;-87
2021/07/20 06:05:56;;;;;;;10.63;7.03;;;;;;;19.39;54.85;100341.78;6066847;23;20334;-87
2021/07/20 06:08:25;;;;;;;11.38;6.47;;;;;;;19.43;54.60;100347.69;6067065;23;20030;-87
2021/07/20 06:10:58;;;;;;;10.40;7.00;;;;;;;19.46;55.29;100351.94;6067337;23;20023;-86
2021/07/20 06:13:28;;;;;;;12.18;6.97;;;;;;;19.50;55.00;100351.56;6067748;23;20478;-87
2021/07/20 06:15:57;;;;;;;11.32;7.50;;;;;;;19.55;55.39;100348.47;6068727;23;20074;-88
2021/07/20 06:18:24;;;;;;;9.57;6.63;;;;;;;19.58;55.35;100358.91;6068298;23;20039;-87
2021/07/20 06:20:56;;;;;;;12.30;7.57;;;;;;;19.59;55.44;100352.56;6071129;23;20027;-88
2021/07/20 06:23:25;;;;;;;11.95;7.22;;;;;;;19.65;55.39;100359.22;6074010;23;20027;-88
2021/07/20 06:25:52;;;;;;;11.77;7.05;;;;;;;19.69;55.34;100362.50;6070414;23;20502;-87
2021/07/20 06:28:25;;;;;;;11.63;7.47;;;;;;;19.71;54.78;100361.38;6069550;23;20027;-88
2021/07/20 06:30:52;;;;;;;9.93;6.72;;;;;;;19.78;55.19;100364.34;6070956;23;20026;-88
2021/07/20 06:33:20;;;;;;;10.07;7.13;;;;;;;19.81;54.92;100364.06;6070820;23;20034;-88
2021/07/20 06:35:48;;;;;;;10.10;6.78;;;;;;;19.85;55.13;100368.16;6070384;23;20048;-89
2021/07/20 06:38:18;;;;;;;12.40;7.63;;;;;;;19.88;54.84;100370.59;6074463;23;20359;-87
2021/07/20 06:40:48;;;;;;;9.85;6.68;;;;;;;19.92;54.73;100369.34;6067843;23;20471;-86
2021/07/20 06:43:16;;;;;;;11.32;7.55;;;;;;;19.97;54.60;100360.94;6067647;23;20023;-86
2021/07/20 06:45:45;;;;;;;12.32;7.60;;;;;;;20.02;54.91;100368.56;6068424;23;20348;-86
2021/07/20 06:48:14;;;;;;;12.82;7.28;;;;;;;20.06;54.57;100370.00;6066466;23;20030;-85
2021/07/20 06:50:42;;;;;;;11.52;7.45;;;;;;;20.13;54.33;100370.28;6069223;23;20038;-86
2021/07/20 06:53:12;;;;;;;10.43;7.10;;;;;;;20.16;54.46;100368.22;6067512;23;20045;-85
2021/07/20 06:55:50;;;;;;;11.43;7.32;;;;;;;20.20;53.96;100374.13;6065956;23;20023;-85
2021/07/20 06:58:19;;;;;;;10.50;7.43;;;;;;;20.28;53.53;100360.94;6068765;23;20487;-85
2021/07/20 07:00:49;;;;;;;11.95;8.27;;;;;;;20.34;53.90;100374.72;6067134;23;20026;-86
2021/07/20 07:03:19;;;;;;;13.25;7.68;;;;;;;20.37;53.47;100367.28;6068684;23;20101;-86
2021/07/20 07:05:47;;;;;;;13.98;8.23;;;;;;;20.44;53.53;100373.78;6067617;23;20023;-85
2021/07/20 07:08:15;;;;;;;12.18;8.50;;;;;;;20.50;53.36;100372.38;6068400;23;20078;-86
2021/07/20 07:10:42;;;;;;;15.15;9.13;;;;;;;20.55;53.33;100380.84;6066549;23;20034;-87
2021/07/20 07:13:09;;;;;;;13.45;8.88;;;;;;;20.60;53.12;100374.22;6066552;23;20027;-85
2021/07/20 07:15:37;;;;;;;14.60;9.70;;;;;;;20.62;52.76;100383.81;6067670;23;20026;-86
2021/07/20 07:18:05;;;;;;;12.45;9.10;;;;;;;20.67;52.88;100384.22;6066869;23;20057;-85
2021/07/20 07:20:32;;;;;;;13.73;9.00;;;;;;;20.71;53.02;100384.81;6066521;23;20026;-84
2021/07/20 07:23:00;;;;;;;13.43;9.02;;;;;;;;;;6068376;23;20355;-85
2021/07/20 07:25:28;;;;;;;15.45;8.40;;;;;;;20.79;52.47;100384.13;6066370;23;20022;-85
2021/07/20 07:27:55;;;;;;;11.60;8.65;;;;;;;20.84;52.23;100389.88;6067721;23;20030;-84
2021/07/20 07:30:22;;;;;;;12.63;8.25;;;;;;;20.88;52.28;100382.44;6066758;23;20482;-85
2021/07/20 07:32:49;;;;;;;13.45;8.90;;;;;;;20.92;51.94;100387.41;6068935;23;20027;-86
2021/07/20 07:35:16;;;;;;;11.90;8.27;;;;;;;20.95;51.69;100392.47;6068732;23;20026;-85
2021/07/20 07:37:49;;;;;;;10.38;7.43;;;;;;;20.99;51.54;100387.69;6069805;23;20033;-85
2021/07/20 07:40:16;;;;;;;10.70;7.20;;;;;;;21.03;51.33;100391.78;6069034;23;20027;-86
2021/07/20 07:42:43;;;;;;;12.57;7.38;;;;;;;21.06;51.54;100386.16;6067628;23;20034;-85
2021/07/20 07:45:13;;;;;;;11.32;7.68;;;;;;;21.10;51.31;100394.72;6067628;23;20018;-86
2021/07/20 07:47:42;;;;;;;9.40;6.95;;;;;;;21.14;50.99;100393.47;6066193;23;20027;-85
2021/07/20 07:50:10;;;;;;;9.65;6.78;;;;;;;21.21;51.33;100391.06;6065746;23;20622;-85
2021/07/20 07:52:37;;;;;;;11.80;7.43;;;;;;;21.26;50.88;100390.66;6066421;23;20023;-86
2021/07/20 07:55:05;;;;;;;11.07;7.75;;;;;;;21.31;50.73;100388.38;6065190;23;20493;-85
2021/07/20 07:57:32;;;;;;;13.10;8.13;;;;;;;21.37;51.03;100392.34;6067541;23;20389;-84
2021/07/20 08:00:00;;;;;;;12.55;7.28;;;;;;;21.42;50.48;100387.38;6067750;23;20066;-84
2021/07/20 08:02:30;;;;;;;11.32;7.63;;;;;;;21.49;51.17;100393.84;6067695;23;20023;-84
2021/07/20 08:05:00;;;;;;;10.70;7.07;;;;;;;21.56;50.98;100392.28;6067652;23;20071;-85
2021/07/20 08:07:27;;;;;;;10.43;7.85;;;;;;;21.65;50.93;100387.91;6065438;23;20054;-84
2021/07/20 08:09:56;;;;;;;9.45;7.03;;;;;;;21.73;50.71;100393.44;6067521;23;20061;-86
2021/07/20 08:12:24;;;;;;;10.93;7.38;;;;;;;21.83;50.85;100395.22;6067067;23;20031;-86
2021/07/20 08:14:51;;;;;;;11.68;7.53;;;;;;;21.93;50.70;100392.50;6067284;23;20486;-86
2021/07/20 08:17:19;;;;;;;8.98;6.45;;;;;;;21.99;50.10;100395.44;6065214;23;20034;-84
2021/07/20 08:19:46;;;;;;;12.65;6.80;;;;;;;22.08;49.58;100404.44;6066148;23;20034;-84
2021/07/20 08:22:16;;;;;;;9.32;6.63;;;;;;;22.16;49.69;100406.38;6066235;23;20404;-84
2021/07/20 08:24:54;;;;;;;9.45;6.82;;;;;;;22.21;48.69;100404.09;6067120;23;20023;-84
2021/07/20 08:27:32;;;;;;;9.48;6.65;;;;;;;22.25;47.93;100408.16;6065772;23;20023;-85
2021/07/20 08:30:00;;;;;;;9.30;6.28;;;;;;;22.33;47.78;100406.59;6065833;23;20027;-85
2021/07/20 08:32:32;;;;;;;11.40;6.60;;;;;;;22.35;47.29;100404.63;6067354;23;20030;-85
2021/07/20 08:35:03;;;;;;;8.85;5.70;;;;;;;22.39;47.73;100406.00;6065611;23;20034;-84
2021/07/20 08:37:51;;;;;;;7.30;5.60;;;;;;;22.46;47.71;100411.63;6067384;23;20026;-85
2021/07/20 08:40:27;;;;;;;9.30;5.43;;;;;;;22.48;46.92;100407.78;6067125;23;20026;-85
2021/07/20 08:43:05;;;;;;;9.57;5.30;;;;;;;22.52;46.14;100411.88;6067631;23;20023;-84
2021/07/20 08:45:37;;;;;;;6.38;5.18;;;;;;;22.56;46.58;100409.75;6067391;23;20031;-83
2021/07/20 08:48:17;;;;;;;7.53;5.55;;;;;;;22.58;46.73;100414.97;6067240;23;20034;-86
2021/07/20 08:50:58;;;;;;;7.93;4.63;;;;;;;22.59;45.89;100416.66;6067682;23;20359;-86
2021/07/20 08:53:40;;;;;;;4.88;3.95;;;;;;;22.61;46.41;100417.34;6067377;23;20042;-84
2021/07/20 08:56:08;;;;;;;6.78;4.30;;;;;;;22.67;45.68;100416.75;6066384;23;20023;-84
2021/07/20 08:58:43;;;;;;;5.55;4.18;;;;;;;22.67;45.43;100406.00;6066991;23;20034;-85
2021/07/20 09:01:22;;;;;;;8.13;4.50;;;;;;;22.69;45.33;100414.75;6067396;23;20355;-85
2021/07/20 09:04:00;;;;;;;5.93;4.30;;;;;;;22.72;45.13;100405.56;6067020;23;20463;-83
2021/07/20 09:06:39;;;;;;;4.78;3.53;;;;;;;22.71;44.71;100419.97;6066370;23;20103;-85
2021/07/20 09:09:20;;;;;;;5.35;3.40;;;;;;;22.69;44.43;100420.09;6067365;23;20474;-85
2021/07/20 09:12:04;;;;;;;5.18;3.63;;;;;;;22.67;45.42;100427.47;6066496;23;20026;-85
2021/07/20 09:14:35;;;;;;;6.65;3.75;;;;;;;22.69;45.49;100422.78;6067435;23;20046;-85
2021/07/20 09:17:22;;;;;;;6.38;3.92;;;;;;;22.65;45.54;100429.44;6067298;23;20026;-85
2021/07/20 09:20:06;;;;;;;5.25;3.65;;;;;;;22.68;45.83;100433.69;6068093;23;20460;-85
2021/07/20 09:22:51;;;;;;;6.63;4.07;;;;;;;22.68;45.24;100431.84;6067496;23;20031;-84
2021/07/20 09:25:24;;;;;;;6.10;4.43;;;;;;;22.74;44.52;100428.56;6066566;23;20023;-84
2021/07/20 09:28:02;;;;;;;5.30;3.80;;;;;;;22.78;45.39;100435.31;6067212;23;20052;-85
2021/07/20 09:30:33;;;;;;;13.48;3.65;;;;;;;22.82;44.84;100438.53;6067501;23;20046;-85
2021/07/20 09:33:09;;;;;;;5.55;3.70;;;;;;;22.85;45.62;100440.94;6068859;23;20038;-86
2021/07/20 09:35:40;;;;;;;4.75;3.75;;;;;;;22.88;44.57;100435.25;6068671;23;20080;-84
2021/07/20 09:38:38;;;;;;;4.82;3.47;;;;;;;22.90;45.48;100443.16;6069101;23;20030;-84
2021/07/20 09:41:33;;;;;;;6.10;3.72;;;;;;;22.94;45.04;100438.34;6069128;23;20538;-84
2021/07/20 09:44:19;;;;;;;6.22;3.80;;;;;;;23.02;44.98;100433.03;6067078;23;20796;-84
2021/07/20 09:47:02;;;;;;;6.18;3.72;;;;;;;23.03;44.15;100427.50;6067599;23;20035;-83
2021/07/20 09:49:38;;;;;;;5.10;3.25;;;;;;;23.08;44.59;100436.94;6069475;23;20038;-86
2021/07/20 09:52:43;;;;;;;6.15;3.60;;;;;;;23.11;44.35;100433.97;6069173;23;20030;-85
2021/07/20 09:55:46;;;;;;;5.95;3.75;;;;;;;23.14;44.70;100436.34;6068531;23;20019;-85
2021/07/20 09:58:28;;;;;;;6.55;4.10;;;;;;;23.17;44.67;100431.50;6066907;23;20034;-84
2021/07/20 10:01:14;;;;;;;6.97;4.05;;;;;;;23.21;44.53;100431.22;6069261;23;20022;-83
2021/07/20 10:03:59;;;;;;;5.05;4.18;;;;;;;23.21;45.02;100433.91;6066871;23;20023;-84
2021/07/20 10:06:41;;;;;;;6.97;3.72;;;;;;;23.23;44.94;100440.78;6069189;23;20019;-85
2021/07/20 10:09:29;;;;;;;7.57;4.82;;;;;;;23.25;45.35;100440.66;6068993;23;20416;-84
2021/07/20 10:12:10;;;;;;;6.47;4.22;;;;;;;23.27;44.60;100436.81;6068688;23;20463;-84
2021/07/20 10:14:48;;;;;;;16.88;4.18;;;;;;;23.33;44.56;100437.19;6068017;23;20550;-85
2021/07/20 10:17:23;;;;;;;9.82;3.90;;;;;;;23.34;44.51;100441.56;6067298;23;20053;-85
2021/07/20 10:20:12;;;;;;;7.47;3.72;;;;;;;23.33;44.23;100439.88;6066816;23;20051;-86
2021/07/20 10:22:46;;;;;;;5.75;3.78;;;;;;;23.37;43.39;100442.13;6068380;23;20478;-86
2021/07/20 10:25:20;;;;;;;12.38;3.85;;;;;;;23.41;43.66;100439.97;6066348;23;20030;-86
2021/07/20 10:28:02;;;;;;;4.47;3.70;;;;;;;23.40;43.72;100439.13;6068537;23;20038;-84
2021/07/20 10:30:34;;;;;;;4.38;3.17;;;;;;;23.46;43.23;100448.41;6066980;23;20027;-85
2021/07/20 10:33:24;;;;;;;5.20;3.28;;;;;;;23.43;44.00;100436.13;6068558;23;20048;-85
2021/07/20 10:36:00;;;;;;;3.55;3.10;;;;;;;23.49;43.48;100440.03;6066696;23;20023;-85
2021/07/20 10:38:34;;;;;;;3.92;3.30;;;;;;;23.52;43.96;100433.50;6067893;23;20029;-85
2021/07/20 10:41:03;;;;;;;4.60;3.03;;;;;;;23.56;43.76;100432.19;6067932;23;20045;-85
2021/07/20 10:43:39;;;;;;;5.88;3.42;;;;;;;23.60;43.17;100435.41;6068015;23;20031;-84
2021/07/20 10:46:08;;;;;;;9.65;3.13;;;;;;;23.65;43.08;100433.09;6066573;23;20026;-86
2021/07/20 10:48:45;;;;;;;4.03;2.88;;;;;;;23.69;42.36;100434.47;6066071;23;20026;-85
2021/07/20 10:51:33;;;;;;;9.25;3.13;;;;;;;23.76;44.24;100424.78;6066842;23;20031;-85
2021/07/20 10:54:26;;;;;;;5.05;3.70;;;;;;;23.98;43.88;100427.94;6068054;23;20231;-86
2021/07/20 10:57:00;;;;;;;5.25;3.72;;;;;;;24.36;45.79;100424.94;6068103;23;20070;-84
2021/07/20 10:59:27;;;;;;;4.53;3.30;;;;;;;24.81;44.33;100425.59;6066324;23;20082;-85
2021/07/20 11:02:08;;;;;;;3.90;3.08;;;;;;;25.31;43.60;100417.59;6066635;23;20023;-83
2021/07/20 11:04:46;;;;;;;4.97;3.20;;;;;;;25.95;43.28;100420.56;6067859;23;20030;-83
2021/07/20 11:07:35;;;;;;;6.20;3.47;;;;;;;26.58;42.59;100425.25;6067142;23;20266;-85
2021/07/20 11:10:12;;;;;;;6.60;3.25;;;;;;;27.14;41.58;100422.38;6066514;23;20027;-85
2021/07/20 11:12:44;;;;;;;4.47;3.38;;;;;;;27.66;39.84;100416.41;6068139;23;20022;-84
2021/07/20 11:15:12;;;;;;;5.15;3.60;;;;;;;28.13;41.02;100403.53;6066513;23;20047;-85
2021/07/20 11:17:41;;;;;;;3.88;3.28;;;;;;;28.60;38.38;100408.72;6067537;23;20027;-84
2021/07/20 11:20:12;;;;;;;4.22;2.70;;;;;;;28.93;37.68;100410.94;6068207;23;20023;-86
2021/07/20 11:22:41;;;;;;;4.70;2.88;;;;;;;29.09;35.88;100418.00;6067788;23;20037;-86
2021/07/20 11:25:10;;;;;;;4.05;3.40;;;;;;;29.10;35.23;100410.69;6065927;23;20030;-84
2021/07/20 11:27:39;;;;;;;7.15;3.35;;;;;;;28.95;34.79;100411.59;6067229;23;20034;-85
2021/07/20 11:30:10;;;;;;;3.50;2.92;;;;;;;28.71;34.44;100412.78;6066101;23;20038;-86
2021/07/20 11:32:38;;;;;;;4.18;3.38;;;;;;;28.45;34.85;100412.28;6066520;23;20027;-84
2021/07/20 11:35:18;;;;;;;4.10;3.20;;;;;;;28.14;35.23;100409.78;6065332;23;20019;-83
2021/07/20 11:37:51;;;;;;;5.10;3.33;;;;;;;27.88;35.55;100411.91;6067858;23;20030;-85
2021/07/20 11:40:24;;;;;;;4.00;3.60;;;;;;;27.64;35.60;100413.03;6067746;23;20030;-85
2021/07/20 11:42:59;;;;;;;16.90;3.50;;;;;;;27.40;36.11;100410.34;6066363;23;20355;-85
2021/07/20 11:45:33;;;;;;;4.60;2.90;;;;;;;27.23;35.42;100406.09;6067473;23;20026;-85